createdAt,value
2024-01-26T00:02:20.093Z,74.54
2024-01-26T00:04:53.564Z,74.37
2024-01-26T00:07:26.451Z,74.96
2024-01-26T00:09:59.791Z,73.48
2024-01-26T00:12:32.518Z,73.79
2024-01-26T00:15:07.455Z,75.12
2024-01-26T00:17:40.150Z,75.69
2024-01-26T00:20:12.816Z,76.38
2024-01-26T00:22:45.465Z,75.59
2024-01-26T00:25:18.099Z,74.83
2024-01-26T00:27:50.933Z,73.63
2024-01-26T00:30:25.007Z,73.74
2024-01-26T00:32:57.744Z,73.50
2024-01-26T00:35:30.348Z,74.25
2024-01-26T00:38:03.226Z,73.87
2024-01-26T00:40:36.117Z,73.53
2024-01-26T00:43:08.970Z,72.54
2024-01-26T00:45:43.283Z,73.33
2024-01-26T00:48:16.017Z,71.74
2024-01-26T00:50:49.122Z,72.51
2024-01-26T00:53:22.281Z,72.04
2024-01-26T00:55:54.879Z,71.85
2024-01-26T00:58:27.579Z,71.18
2024-01-26T01:01:02.056Z,72.32
2024-01-26T01:03:34.768Z,71.75
2024-01-26T01:06:07.569Z,70.65
2024-01-26T01:08:40.353Z,70.93
2024-01-26T01:11:12.973Z,71.13
2024-01-26T01:13:45.558Z,70.66
2024-01-26T01:16:19.525Z,71.68
2024-01-26T01:18:52.718Z,71.78
2024-01-26T01:21:25.635Z,70.61
2024-01-26T01:23:58.280Z,71.66
2024-01-26T01:26:30.918Z,71.74
2024-01-26T01:29:03.523Z,72.06
2024-01-26T01:31:37.535Z,71.71
2024-01-26T01:34:10.250Z,71.88
2024-01-26T01:36:42.934Z,72.61
2024-01-26T01:39:15.562Z,71.97
2024-01-26T01:41:48.711Z,73.31
2024-01-26T01:44:21.419Z,74.76
2024-01-26T01:46:55.396Z,74.54
2024-01-26T01:49:28.033Z,73.78
2024-01-26T01:52:02.268Z,73.49
2024-01-26T01:54:35.131Z,75.58
2024-01-26T01:57:08.130Z,74.47
2024-01-26T01:59:41.588Z,73.95
2024-01-26T02:02:15.611Z,74.90
2024-01-26T02:04:48.242Z,74.24
2024-01-26T02:07:20.847Z,73.78
2024-01-26T02:09:53.434Z,71.51
2024-01-26T02:12:26.220Z,73.34
2024-01-26T02:14:58.793Z,72.92
2024-01-26T02:17:34.321Z,71.60
2024-01-26T02:20:08.160Z,72.30
2024-01-26T02:22:40.806Z,71.48
2024-01-26T02:25:14.745Z,70.54
2024-01-26T02:27:47.368Z,71.00
2024-01-26T02:30:20.187Z,72.67
2024-01-26T02:32:52.898Z,71.14
2024-01-26T02:35:25.708Z,71.89
2024-01-26T02:37:58.317Z,72.87
2024-01-26T02:40:32.299Z,72.32
2024-01-26T02:43:05.630Z,70.49
2024-01-26T02:45:38.220Z,69.95
2024-01-26T02:48:10.941Z,70.46
2024-01-26T02:50:43.638Z,70.60
2024-01-26T02:53:16.293Z,70.34
2024-01-26T02:55:50.270Z,69.93
2024-01-26T02:58:22.849Z,69.36
2024-01-26T03:00:55.544Z,70.65
2024-01-26T03:03:28.282Z,70.45
2024-01-26T03:06:01.047Z,71.30
2024-01-26T03:08:33.957Z,71.20
2024-01-26T03:11:07.941Z,72.63
2024-01-26T03:13:41.012Z,71.46
2024-01-26T03:16:13.587Z,71.75
2024-01-26T03:18:46.251Z,71.53
2024-01-26T03:21:18.939Z,72.63
2024-01-26T03:23:51.575Z,72.30
2024-01-26T03:26:25.507Z,72.71
2024-01-26T03:28:58.092Z,72.33
2024-01-26T03:31:30.763Z,72.17
2024-01-26T03:34:03.674Z,72.06
2024-01-26T03:36:36.447Z,69.95
2024-01-26T03:39:09.776Z,70.03
2024-01-26T03:41:43.850Z,70.79
2024-01-26T03:44:16.524Z,71.22
2024-01-26T03:46:49.116Z,71.67
2024-01-26T03:49:21.852Z,71.01
2024-01-26T03:51:54.494Z,71.77
2024-01-26T03:54:27.087Z,71.64
2024-01-26T03:57:01.100Z,72.38
2024-01-26T03:59:33.908Z,70.78
2024-01-26T04:02:06.538Z,72.06
2024-01-26T04:04:39.130Z,71.15
2024-01-26T04:07:12.244Z,70.87
2024-01-26T04:09:44.862Z,70.56
2024-01-26T04:12:18.802Z,71.33
2024-01-26T04:14:51.513Z,71.53
2024-01-26T04:17:24.103Z,71.46
2024-01-26T04:19:56.724Z,71.92
2024-01-26T04:22:29.336Z,71.19
2024-01-26T04:25:02.498Z,70.33
2024-01-26T04:27:36.734Z,72.71
2024-01-26T04:30:10.344Z,73.14
2024-01-26T04:32:43.298Z,71.72
2024-01-26T04:35:16.041Z,71.35
2024-01-26T04:37:48.633Z,72.10
2024-01-26T04:40:21.437Z,71.37
2024-01-26T04:42:55.369Z,70.47
2024-01-26T04:45:27.968Z,71.18
2024-01-26T04:48:00.979Z,69.64
2024-01-26T04:50:33.735Z,69.99
2024-01-26T04:53:06.746Z,69.99
2024-01-26T04:55:39.699Z,70.55
2024-01-26T04:58:13.679Z,70.45
2024-01-26T05:00:47.992Z,69.71
2024-01-26T05:03:20.653Z,70.69
2024-01-26T05:05:53.420Z,69.58
2024-01-26T05:08:26.098Z,68.28
2024-01-26T05:10:58.701Z,68.93
2024-01-26T05:13:32.699Z,69.51
2024-01-26T05:16:06.216Z,68.72
2024-01-26T05:18:39.493Z,68.49
2024-01-26T05:21:12.164Z,67.92
2024-01-26T05:23:44.900Z,68.20
2024-01-26T05:26:17.517Z,68.00
2024-01-26T05:28:51.432Z,68.35
2024-01-26T05:31:24.090Z,68.78
2024-01-26T05:33:56.880Z,69.67
2024-01-26T05:36:29.526Z,69.15
2024-01-26T05:39:03.883Z,69.04
2024-01-26T05:41:37.628Z,69.69
2024-01-26T05:44:12.759Z,69.88
2024-01-26T05:46:46.393Z,69.32
2024-01-26T05:49:20.307Z,68.97
2024-01-26T05:51:54.093Z,69.36
2024-01-26T05:54:27.777Z,69.65
2024-01-26T05:57:02.356Z,70.17
2024-01-26T05:59:38.572Z,69.08
2024-01-26T06:02:12.905Z,69.66
2024-01-26T06:04:46.654Z,69.41
2024-01-26T06:07:21.219Z,69.81
2024-01-26T06:09:54.866Z,69.28
2024-01-26T06:12:28.798Z,70.38
2024-01-26T06:15:03.937Z,70.45
2024-01-26T06:17:37.892Z,69.05
2024-01-26T06:20:14.108Z,68.99
2024-01-26T06:22:47.838Z,70.54
2024-01-26T06:25:21.935Z,71.65
2024-01-26T06:27:55.607Z,69.62
2024-01-26T06:30:30.718Z,69.28
2024-01-26T06:33:04.856Z,69.00
2024-01-26T06:35:39.397Z,68.00
2024-01-26T06:38:14.016Z,68.02
2024-01-26T06:40:48.085Z,69.51
2024-01-26T06:43:21.733Z,69.25
2024-01-26T06:45:56.745Z,70.83
2024-01-26T06:48:30.800Z,70.64
2024-01-26T06:51:04.795Z,68.76
2024-01-26T06:53:38.551Z,67.92
2024-01-26T06:56:12.349Z,68.81
2024-01-26T06:58:46.850Z,70.09
2024-01-26T07:01:22.144Z,70.23
2024-01-26T07:03:56.011Z,68.71
2024-01-26T07:06:29.741Z,68.06
2024-01-26T07:09:03.518Z,67.39
2024-01-26T07:11:39.425Z,67.99
2024-01-26T07:14:15.175Z,68.67
2024-01-26T07:16:51.956Z,68.18
2024-01-26T07:19:25.816Z,68.90
2024-01-26T07:21:59.616Z,68.68
2024-01-26T07:24:33.375Z,67.40
2024-01-26T07:27:25.206Z,67.23
2024-01-26T07:29:59.057Z,67.86
2024-01-26T07:32:35.455Z,67.87
2024-01-26T07:35:09.809Z,68.34
2024-01-26T07:37:43.481Z,68.83
2024-01-26T07:40:17.310Z,68.23
2024-01-26T07:42:50.935Z,67.04
2024-01-26T07:45:24.629Z,67.32
2024-01-26T07:47:59.789Z,68.86
2024-01-26T07:50:33.864Z,67.98
2024-01-26T07:53:07.593Z,67.81
2024-01-26T07:55:41.436Z,67.25
2024-01-26T07:58:15.152Z,67.32
2024-01-26T08:00:49.122Z,66.17
2024-01-26T08:03:24.529Z,66.91
2024-01-26T08:05:58.430Z,68.81
2024-01-26T08:08:32.207Z,68.17
2024-01-26T08:11:06.834Z,67.87
2024-01-26T08:13:40.486Z,67.08
2024-01-26T08:16:16.291Z,67.83
2024-01-26T08:18:52.021Z,68.45
2024-01-26T08:21:26.956Z,68.01
2024-01-26T08:24:00.853Z,68.18
2024-01-26T08:26:35.209Z,68.36
2024-01-26T08:29:12.787Z,68.52
2024-01-26T08:31:47.767Z,67.68
2024-01-26T08:34:23.046Z,67.67
2024-01-26T08:36:56.802Z,68.93
2024-01-26T08:39:30.767Z,69.16
2024-01-26T08:42:04.670Z,69.04
2024-01-26T08:44:38.451Z,68.65
2024-01-26T08:47:12.124Z,68.41
2024-01-26T08:49:47.109Z,68.20
2024-01-26T08:52:20.767Z,68.97
2024-01-26T08:54:54.415Z,68.81
2024-01-26T08:57:28.289Z,69.80
2024-01-26T09:00:05.083Z,68.45
2024-01-26T09:02:39.493Z,68.97
2024-01-26T09:05:15.487Z,68.60
2024-01-26T09:07:49.383Z,67.54
2024-01-26T09:10:25.310Z,67.52
2024-01-26T09:12:59.349Z,68.55
2024-01-26T09:15:33.062Z,68.66
2024-01-26T09:18:06.995Z,68.21
2024-01-26T09:20:43.032Z,67.58
2024-01-26T09:23:16.910Z,68.16
2024-01-26T09:25:50.598Z,69.33
2024-01-26T09:28:24.418Z,69.17
2024-01-26T09:30:58.129Z,69.39
2024-01-26T09:33:31.937Z,69.79
2024-01-26T09:36:07.466Z,68.36
2024-01-26T09:38:41.187Z,68.04
2024-01-26T09:41:14.874Z,68.38
2024-01-26T09:43:48.633Z,68.39
2024-01-26T09:46:23.280Z,67.66
2024-01-26T09:48:59.886Z,69.33
2024-01-26T09:51:35.587Z,67.95
2024-01-26T09:54:09.786Z,67.81
2024-01-26T09:56:44.902Z,68.16
2024-01-26T09:59:18.764Z,67.17
2024-01-26T10:01:52.805Z,67.29
2024-01-26T10:04:26.507Z,67.92
2024-01-26T10:07:01.716Z,68.34
2024-01-26T10:09:36.260Z,68.00
2024-01-26T10:12:11.748Z,67.84
2024-01-26T10:14:45.551Z,66.53
2024-01-26T10:17:19.626Z,65.94
2024-01-26T10:19:53.392Z,67.24
2024-01-26T10:22:28.463Z,67.38
2024-01-26T10:25:03.878Z,66.60
2024-01-26T10:27:38.825Z,65.57
2024-01-26T10:30:15.182Z,65.00
2024-01-26T10:32:50.138Z,64.02
2024-01-26T10:35:25.395Z,62.90
2024-01-26T10:38:01.007Z,64.28
2024-01-26T10:40:35.932Z,63.97
2024-01-26T10:43:10.622Z,64.83
2024-01-26T10:45:45.179Z,64.91
2024-01-26T10:48:19.127Z,63.58
2024-01-26T10:50:53.110Z,64.12
2024-01-26T10:53:28.974Z,63.34
2024-01-26T10:56:05.290Z,63.81
2024-01-26T10:58:39.105Z,61.78
2024-01-26T11:01:14.570Z,63.26
2024-01-26T11:03:49.031Z,63.85
2024-01-26T11:06:23.026Z,63.45
2024-01-26T11:09:07.704Z,64.31
2024-01-26T11:11:42.588Z,62.84
2024-01-26T11:14:16.685Z,63.68
2024-01-26T11:16:50.535Z,62.44
2024-01-26T11:19:25.059Z,61.38
2024-01-26T11:22:04.710Z,60.90
2024-01-26T11:24:39.856Z,62.34
2024-01-26T11:27:13.775Z,60.97
2024-01-26T11:29:48.748Z,62.03
2024-01-26T11:32:25.235Z,61.55
2024-01-26T11:35:07.236Z,60.49
2024-01-26T11:37:41.287Z,60.52
2024-01-26T11:40:16.734Z,60.56
2024-01-26T11:42:50.680Z,60.22
2024-01-26T11:45:52.825Z,59.03
2024-01-26T11:48:27.949Z,58.09
2024-01-26T11:51:03.020Z,58.12
2024-01-26T11:53:37.051Z,59.52
2024-01-26T11:56:13.641Z,59.37
2024-01-26T11:58:48.703Z,58.65
2024-01-26T12:01:24.227Z,61.31
2024-01-26T12:03:58.078Z,59.07
2024-01-26T12:06:32.088Z,58.08
2024-01-26T12:09:06.098Z,58.99
2024-01-26T12:11:41.668Z,57.83
2024-01-26T12:14:15.377Z,55.68
2024-01-26T12:16:49.005Z,55.03
2024-01-26T12:19:22.800Z,56.21
2024-01-26T12:21:56.553Z,54.92
2024-01-26T12:24:30.262Z,55.74
2024-01-26T12:27:06.198Z,56.00
2024-01-26T12:29:40.097Z,54.99
2024-01-26T12:32:15.532Z,54.37
2024-01-26T12:34:49.799Z,52.92
2024-01-26T12:37:23.585Z,55.27
2024-01-26T12:39:57.254Z,53.51
2024-01-26T12:42:32.914Z,55.45
2024-01-26T12:45:07.398Z,56.28
2024-01-26T12:47:41.234Z,54.71
2024-01-26T12:50:15.416Z,56.85
2024-01-26T12:52:49.482Z,55.60
2024-01-26T12:55:24.620Z,55.17
2024-01-26T12:57:59.776Z,54.40
2024-01-26T13:00:33.516Z,54.74
2024-01-26T13:03:07.962Z,53.99
2024-01-26T13:06:10.525Z,53.80
2024-01-26T13:08:44.249Z,56.08
2024-01-26T13:11:17.935Z,56.52
2024-01-26T13:13:52.952Z,56.14
2024-01-26T13:16:26.952Z,58.84
2024-01-26T13:19:00.793Z,56.02
2024-01-26T13:21:34.836Z,55.47
2024-01-26T13:24:09.493Z,53.71
2024-01-26T13:26:44.064Z,54.52
2024-01-26T13:29:19.116Z,53.10
2024-01-26T13:31:52.850Z,54.58
2024-01-26T13:34:27.700Z,54.51
2024-01-26T13:37:01.760Z,55.49
2024-01-26T13:39:35.470Z,55.24
2024-01-26T13:42:09.594Z,54.56
2024-01-26T13:44:46.162Z,54.99
2024-01-26T13:47:20.020Z,55.10
2024-01-26T13:49:55.440Z,54.71
2024-01-26T13:52:29.246Z,54.80
2024-01-26T13:55:03.678Z,56.21
2024-01-26T13:57:37.447Z,56.01
2024-01-26T14:00:21.370Z,56.17
2024-01-26T14:02:56.652Z,56.24
2024-01-26T14:05:30.518Z,55.04
2024-01-26T14:08:04.346Z,54.24
2024-01-26T14:10:38.797Z,53.67
2024-01-26T14:13:12.446Z,55.82
2024-01-26T14:15:47.537Z,54.08
2024-01-26T14:18:21.700Z,54.95
2024-01-26T14:20:55.521Z,52.90
2024-01-26T14:23:29.250Z,54.72
2024-01-26T14:26:03.983Z,53.27
2024-01-26T14:28:37.719Z,53.54
2024-01-26T14:31:12.746Z,55.12
2024-01-26T14:33:46.623Z,55.02
2024-01-26T14:36:21.635Z,55.39
2024-01-26T14:38:55.585Z,54.54
2024-01-26T14:41:29.313Z,55.22
2024-01-26T14:44:04.661Z,56.10
2024-01-26T14:46:41.013Z,57.12
2024-01-26T14:49:15.530Z,56.16
2024-01-26T14:51:49.275Z,57.93
2024-01-26T14:54:23.017Z,57.43
2024-01-26T14:56:56.767Z,56.95
2024-01-26T14:59:30.481Z,58.41
2024-01-26T15:02:05.799Z,58.94
2024-01-26T15:04:42.672Z,57.36
2024-01-26T15:07:16.602Z,56.49
2024-01-26T15:09:50.576Z,57.33
2024-01-26T15:12:24.516Z,56.78
2024-01-26T15:14:58.293Z,57.01
2024-01-26T15:17:33.392Z,57.37
2024-01-26T15:20:08.927Z,56.47
2024-01-26T15:22:43.530Z,56.76
2024-01-26T15:25:17.488Z,57.17
2024-01-26T15:27:51.701Z,58.16
2024-01-26T15:30:25.457Z,57.53
2024-01-26T15:33:00.606Z,56.61
2024-01-26T15:35:36.124Z,57.63
2024-01-26T15:38:09.778Z,58.16
2024-01-26T15:40:43.978Z,59.31
2024-01-26T15:43:17.722Z,58.88
2024-01-26T15:45:51.438Z,60.14
2024-01-26T15:48:26.666Z,59.25
2024-01-26T15:51:00.749Z,58.82
2024-01-26T15:53:34.575Z,60.86
2024-01-26T15:56:09.348Z,60.39
2024-01-26T15:58:43.099Z,60.24
2024-01-26T16:01:18.196Z,58.89
2024-01-26T16:03:53.870Z,58.68
2024-01-26T16:06:27.940Z,60.05
2024-01-26T16:09:02.253Z,61.01
2024-01-26T16:11:35.936Z,59.40
2024-01-26T16:14:09.635Z,61.78
2024-01-26T16:16:43.532Z,59.30
2024-01-26T16:19:18.638Z,59.84
2024-01-26T16:21:52.407Z,60.01
2024-01-26T16:24:27.101Z,60.62
2024-01-26T16:27:00.833Z,60.29
2024-01-26T16:29:34.466Z,61.78
2024-01-26T16:32:08.361Z,61.14
2024-01-26T16:34:43.589Z,60.93
2024-01-26T16:37:17.448Z,62.28
2024-01-26T16:39:51.131Z,63.41
2024-01-26T16:42:24.920Z,62.66
2024-01-26T16:44:58.738Z,64.17
2024-01-26T16:47:32.845Z,64.38
2024-01-26T16:50:08.946Z,65.21
2024-01-26T16:52:42.669Z,64.41
2024-01-26T16:55:16.303Z,63.93
2024-01-26T16:57:49.971Z,62.43
2024-01-26T17:00:24.137Z,64.42
2024-01-26T17:02:58.789Z,64.87
2024-01-26T17:05:36.267Z,65.81
2024-01-26T17:08:10.106Z,64.94
2024-01-26T17:10:44.020Z,63.86
2024-01-26T17:13:17.703Z,65.83
2024-01-26T17:15:51.483Z,63.96
2024-01-26T17:18:25.216Z,66.19
2024-01-26T17:21:10.446Z,66.34
2024-01-26T17:23:45.549Z,67.33
2024-01-26T17:26:19.386Z,67.71
2024-01-26T17:28:53.046Z,67.00
2024-01-26T17:31:28.715Z,66.99
2024-01-26T17:34:09.315Z,66.26
2024-01-26T17:36:44.671Z,66.50
2024-01-26T17:39:21.123Z,66.36
2024-01-26T17:41:56.150Z,67.13
2024-01-26T17:44:29.907Z,68.78
2024-01-26T17:47:03.646Z,69.13
2024-01-26T17:49:37.420Z,68.39
2024-01-26T17:52:11.124Z,68.90
2024-01-26T17:54:46.184Z,68.55
2024-01-26T17:57:19.993Z,68.24
2024-01-26T17:59:53.753Z,68.33
2024-01-26T18:02:28.168Z,68.25
2024-01-26T18:05:02.098Z,68.09
2024-01-26T18:07:36.011Z,68.32
2024-01-26T18:10:11.684Z,69.56
2024-01-26T18:12:45.346Z,70.34
2024-01-26T18:15:19.369Z,70.93
2024-01-26T18:17:53.254Z,69.75
2024-01-26T18:20:26.981Z,69.71
2024-01-26T18:23:01.058Z,70.35
2024-01-26T18:25:36.236Z,68.85
2024-01-26T18:28:09.880Z,68.22
2024-01-26T18:30:43.602Z,67.95
2024-01-26T18:33:18.312Z,67.15
2024-01-26T18:35:53.897Z,68.44
2024-01-26T18:38:29.339Z,67.67
2024-01-26T18:41:04.941Z,67.80
2024-01-26T18:43:38.588Z,67.94
2024-01-26T18:46:12.356Z,68.51
2024-01-26T18:48:46.964Z,68.92
2024-01-26T18:51:20.704Z,68.53
2024-01-26T18:53:54.588Z,69.99
2024-01-26T18:56:29.847Z,68.53
2024-01-26T18:59:05.241Z,69.53
2024-01-26T19:01:39.043Z,69.34
2024-01-26T19:04:12.941Z,69.71
2024-01-26T19:06:47.764Z,68.90
2024-01-26T19:09:21.747Z,69.06
2024-01-26T19:11:56.949Z,69.08
2024-01-26T19:14:31.107Z,69.88
2024-01-26T19:17:05.507Z,68.31
2024-01-26T19:19:43.341Z,69.01
2024-01-26T19:22:18.079Z,70.28
2024-01-26T19:24:52.148Z,68.90
2024-01-26T19:27:28.285Z,68.75
2024-01-26T19:30:02.380Z,70.29
2024-01-26T19:32:36.454Z,69.74
2024-01-26T19:35:10.660Z,69.86
2024-01-26T19:37:44.534Z,70.01
2024-01-26T19:40:18.859Z,70.43
2024-01-26T19:42:54.378Z,70.69
2024-01-26T19:45:28.587Z,70.59
2024-01-26T19:48:02.556Z,70.17
2024-01-26T19:50:37.285Z,70.47
2024-01-26T19:53:11.091Z,71.75
2024-01-26T19:55:45.718Z,71.45
2024-01-26T19:58:21.112Z,71.53
2024-01-26T20:00:54.925Z,71.50
2024-01-26T20:03:29.402Z,70.87
2024-01-26T20:06:04.033Z,71.17
2024-01-26T20:08:38.183Z,71.58
2024-01-26T20:11:12.039Z,71.21
2024-01-26T20:13:47.098Z,71.34
2024-01-26T20:16:23.232Z,71.21
2024-01-26T20:18:57.137Z,71.32
2024-01-26T20:21:30.909Z,72.13
2024-01-26T20:24:05.019Z,72.43
2024-01-26T20:26:38.938Z,72.95
2024-01-26T20:29:14.990Z,73.02
2024-01-26T20:31:50.001Z,73.03
2024-01-26T20:34:23.937Z,73.25
2024-01-26T20:36:59.900Z,73.20
2024-01-26T20:39:34.171Z,72.01
2024-01-26T20:42:08.301Z,73.05
2024-01-26T20:44:43.925Z,73.44
2024-01-26T20:47:19.675Z,73.96
2024-01-26T20:49:53.460Z,73.83
2024-01-26T20:52:28.913Z,74.38
2024-01-26T20:55:03.307Z,75.01
2024-01-26T20:57:37.123Z,74.81
2024-01-26T21:00:13.548Z,75.24
2024-01-26T21:02:47.404Z,75.38
2024-01-26T21:05:21.381Z,75.30
2024-01-26T21:07:59.312Z,75.59
2024-01-26T21:10:33.044Z,76.17
2024-01-26T21:13:07.032Z,75.96
2024-01-26T21:15:42.205Z,76.10
2024-01-26T21:18:18.415Z,76.42
2024-01-26T21:20:52.425Z,76.06
2024-01-26T21:23:26.447Z,77.14
2024-01-26T21:26:02.526Z,78.62
2024-01-26T21:28:36.189Z,78.95
2024-01-26T21:31:11.550Z,79.02
2024-01-26T21:33:45.463Z,78.11
2024-01-26T21:36:19.657Z,78.35
2024-01-26T21:38:53.620Z,78.79
2024-01-26T21:41:28.668Z,78.14
2024-01-26T21:44:02.739Z,78.54
2024-01-26T21:46:37.972Z,79.08
2024-01-26T21:49:12.501Z,79.46
2024-01-26T21:51:55.039Z,78.37
2024-01-26T21:54:31.810Z,78.29
2024-01-26T21:57:05.751Z,80.92
2024-01-26T21:59:39.427Z,81.55
2024-01-26T22:02:14.692Z,80.98
2024-01-26T22:04:48.411Z,81.50
2024-01-26T22:07:22.116Z,82.28
2024-01-26T22:09:55.993Z,81.71
2024-01-26T22:12:29.774Z,81.71
2024-01-26T22:15:05.781Z,81.55
2024-01-26T22:17:41.174Z,81.10
2024-01-26T22:20:15.002Z,80.77
2024-01-26T22:22:49.265Z,80.81
2024-01-26T22:25:27.527Z,81.00
2024-01-26T22:28:01.685Z,81.26
2024-01-26T22:30:35.429Z,81.12
2024-01-26T22:33:10.650Z,81.07
2024-01-26T22:35:46.195Z,80.82
2024-01-26T22:38:19.933Z,82.11
2024-01-26T22:40:53.600Z,82.05
2024-01-26T22:43:28.419Z,82.56
2024-01-26T22:46:05.200Z,82.19
2024-01-26T22:48:40.506Z,82.61
2024-01-26T22:51:14.415Z,82.65
2024-01-26T22:53:48.157Z,82.76
2024-01-26T22:56:21.822Z,84.42
2024-01-26T22:58:55.741Z,84.06
2024-01-26T23:01:29.446Z,82.80
2024-01-26T23:04:06.647Z,82.92
2024-01-26T23:06:40.585Z,82.49
2024-01-26T23:09:16.507Z,82.20
2024-01-26T23:11:50.246Z,82.90
2024-01-26T23:14:23.902Z,82.96
2024-01-26T23:16:57.523Z,82.35
2024-01-26T23:19:32.799Z,82.03
2024-01-26T23:22:07.300Z,82.38
2024-01-26T23:24:40.947Z,81.96
2024-01-26T23:27:14.739Z,81.98
2024-01-26T23:29:48.476Z,81.99
2024-01-26T23:32:22.612Z,81.23
2024-01-26T23:35:03.570Z,83.29
2024-01-26T23:37:38.227Z,82.97
2024-01-26T23:40:14.542Z,84.52
2024-01-26T23:42:49.464Z,82.08
2024-01-26T23:45:23.241Z,81.94
2024-01-26T23:47:57.366Z,81.59
2024-01-26T23:50:32.454Z,81.80
2024-01-26T23:53:06.230Z,81.37
2024-01-26T23:55:39.951Z,81.94
2024-01-26T23:58:13.792Z,82.87
